Impacts METAR Board
IDs:

KSLC - Salt Lake City Intl, UT, US

Updated at: 0300 UTC 16 Aug 2018
Potential Impact None Slight Moderate High
Time 15/15Z 15/16Z 15/17Z 15/18Z 15/19Z 15/20Z 15/21Z 15/22Z 15/23Z 16/00Z 16/01Z 16/02Z 16/03Z
Temp75 79 82 86 88 86 88 88 90 90 89 87 83
Dewpt49 48 47 44 42 44 42 40 38 39 42 44 50
Altim30.06 30.06 30.06 30.05 30.05 30.05 30.04 30.02 29.99 29.98 29.98 29.98 30.00
VIS10 10 10 10 10 10 10 10 10 10 10 10 10
CIG-- -- -- -- -- 150 150 200 200 180 160 190 190
CoverFEWFEWFEWFEWSCTBKNBKNBKNBKNBKNBKNBKNBKN
FltCatVFRVFRVFRVFRVFRVFRVFRVFRVFRVFRVFRVFRVFR
WX--------------------------
WDir1501501501601601901601401300300350350
WSpd5 10 9 8 11 13 9 8 5 5 9 7 6
WGst-- -- -- -- 15 -- -- -- -- -- -- -- --
Raw hourly METARs
KSLC 151454Z 15005KT 10SM FEW160 24/09 A3006 RMK AO2 SLP118 T02390094 53011
KSLC 151554Z 15010KT 10SM FEW160 26/09 A3006 RMK AO2 SLP119 T02610089
KSLC 151654Z 15009KT 10SM FEW160 28/08 A3006 RMK AO2 SLP119 T02780083
KSLC 151754Z 16008KT 10SM FEW090 FEW170 30/07 A3005 RMK AO2 SLP114 T03000067 10300 20206 58001
KSLC 151854Z 16011G15KT 10SM FEW090 SCT150 31/06 A3005 RMK AO2 SLP113 T03110056
KSLC 151954Z 19013KT 10SM FEW090 BKN150 BKN250 30/07 A3005 RMK AO2 SLP115 VIRGA DSNT SE CB DSNT NE T03000067
KSLC 152054Z 16009KT 10SM FEW095 BKN150 BKN250 31/06 A3004 RMK AO2 SLP110 VIRGA CB DSNT NE AND NW TCU DSNT SW T03110056 58005
KSLC 152154Z 14008KT 10SM FEW090 SCT180 BKN200 BKN250 31/04 A3002 RMK AO2 SLP104 VIRGA TCU DSNT SW T03110044
KSLC 152254Z 13005KT 10SM FEW090 SCT170 BKN200 BKN240 32/03 A2999 RMK AO2 SLP096 VIRGA TCU DSNT SW T03220033
KSLC 152354Z VRB05KT 10SM FEW090 FEW150 BKN180 BKN240 32/04 A2998 RMK AO2 SLP090 VIRGA TCU DSNT SW T03220039 10328 20294 56018
KSLC 160054Z 30009KT 10SM FEW090 BKN160 BKN230 32/06 A2998 RMK AO2 SLP090 VIRGA T03170056
KSLC 160154Z 35007KT 10SM FEW090 SCT150 BKN190 BKN230 31/07 A2998 RMK AO2 SLP093 VIRGA T03060067
KSLC 160254Z 35006KT 10SM FEW090 SCT150 BKN190 BKN230 28/10 A3000 RMK AO2 SLP100 VIRGA T02830100 53007



Page loaded:  03:07 UTC  |   08:07 PM Pacific  |   09:07 PM Mountain  |   10:07 PM Central  |   11:07 PM Eastern

 

ADVISORIES

FORECASTS

FORECASTS

OBSERVATIONS

USER TOOLS

ABOUT US